createdAt,value
2022-12-01T00:00:54.624Z,57.42
2022-12-01T00:03:44.335Z,59.42
2022-12-01T00:06:25.005Z,56.10
2022-12-01T00:09:16.445Z,56.65
2022-12-01T00:11:48.632Z,60.17
2022-12-01T00:14:16.627Z,58.85
2022-12-01T00:16:44.759Z,55.40
2022-12-01T00:19:11.797Z,53.13
2022-12-01T00:21:38.923Z,57.40
2022-12-01T00:24:07.468Z,59.45
2022-12-01T00:26:34.431Z,66.28
2022-12-01T00:29:21.382Z,60.72
2022-12-01T00:32:22.451Z,64.97
2022-12-01T00:35:23.462Z,68.93
2022-12-01T00:38:24.329Z,60.55
2022-12-01T00:40:57.233Z,63.35
2022-12-01T00:43:44.375Z,65.38
2022-12-01T00:46:25.133Z,65.75
2022-12-01T00:48:52.187Z,60.75
2022-12-01T00:51:19.348Z,57.80
2022-12-01T00:53:46.356Z,56.28
2022-12-01T00:56:13.520Z,57.88
2022-12-01T00:58:48.137Z,63.67
2022-12-01T01:01:15.405Z,62.75
2022-12-01T01:04:05.381Z,55.63
2022-12-01T01:06:46.423Z,57.58
2022-12-01T01:09:34.606Z,62.78
2022-12-01T01:12:15.011Z,58.70
2022-12-01T01:14:42.110Z,64.75
2022-12-01T01:17:10.143Z,59.78
2022-12-01T01:19:37.728Z,51.00
2022-12-01T01:22:04.877Z,62.28
2022-12-01T01:24:41.121Z,62.60
2022-12-01T01:27:38.411Z,62.67
2022-12-01T01:30:12.678Z,69.55
2022-12-01T01:33:39.355Z,58.58
2022-12-01T01:36:41.451Z,60.47
2022-12-01T01:39:42.411Z,59.50
2022-12-01T01:42:23.421Z,59.55
2022-12-01T01:44:58.988Z,64.55
2022-12-01T01:47:36.951Z,69.45
2022-12-01T01:50:11.033Z,68.32
2022-12-01T01:52:43.720Z,62.55
2022-12-01T01:55:11.861Z,64.45
2022-12-01T01:57:39.352Z,64.72
2022-12-01T02:00:15.432Z,65.93
2022-12-01T02:03:04.438Z,61.58
2022-12-01T02:05:46.272Z,68.85
2022-12-01T02:08:13.497Z,73.30
2022-12-01T02:11:09.844Z,70.88
2022-12-01T02:14:00.071Z,74.88
2022-12-01T02:17:02.202Z,65.25
2022-12-01T02:19:54.193Z,70.22
2022-12-01T02:23:19.751Z,66.20
2022-12-01T02:25:51.893Z,65.85
2022-12-01T02:29:18.005Z,71.07
2022-12-01T02:32:34.225Z,71.53
2022-12-01T02:35:41.300Z,73.45
2022-12-01T02:38:39.688Z,75.00
2022-12-01T02:41:20.801Z,73.18
2022-12-01T02:44:02.551Z,73.63
2022-12-01T02:46:34.299Z,61.08
2022-12-01T02:49:08.085Z,72.00
2022-12-01T02:51:39.831Z,76.18
2022-12-01T02:54:07.443Z,67.70
2022-12-01T02:56:58.433Z,62.88
2022-12-01T03:00:06.481Z,68.40
2022-12-01T03:03:13.591Z,72.07
2022-12-01T03:06:02.179Z,75.65
2022-12-01T03:08:46.148Z,67.07
2022-12-01T03:11:43.424Z,67.60
2022-12-01T03:14:39.635Z,64.47
2022-12-01T03:17:19.800Z,63.22
2022-12-01T03:19:54.008Z,61.88
2022-12-01T03:22:33.067Z,66.95
2022-12-01T03:25:04.021Z,67.95
2022-12-01T03:27:37.252Z,72.00
2022-12-01T03:30:11.127Z,71.63
2022-12-01T03:33:05.093Z,66.65
2022-12-01T03:35:54.300Z,71.22
2022-12-01T03:38:26.499Z,71.97
2022-12-01T03:41:01.678Z,66.40
2022-12-01T03:43:44.011Z,69.45
2022-12-01T03:46:41.487Z,73.03
2022-12-01T03:52:43.214Z,62.33
2022-12-01T03:55:42.920Z,70.72
2022-12-01T03:58:59.513Z,70.47
2022-12-01T04:02:55.640Z,66.55
2022-12-01T04:07:00.629Z,67.47
2022-12-01T04:13:46.400Z,72.13
2022-12-01T04:16:40.456Z,68.10
2022-12-01T04:19:42.485Z,65.82
2022-12-01T04:22:41.950Z,71.05
2022-12-01T04:25:10.001Z,69.22
2022-12-01T04:28:07.695Z,74.28
2022-12-01T04:35:40.658Z,75.57
2022-12-01T04:38:41.114Z,63.20
2022-12-01T04:41:49.207Z,66.95
2022-12-01T04:44:42.199Z,73.60
2022-12-01T04:47:49.494Z,66.85
2022-12-01T04:51:00.352Z,63.60
2022-12-01T04:53:42.706Z,59.70
2022-12-01T04:56:46.884Z,60.03
2022-12-01T04:59:39.365Z,57.00
2022-12-01T05:02:14.413Z,59.10
2022-12-01T05:05:42.779Z,55.58
2022-12-01T05:08:56.962Z,52.47
2022-12-01T05:11:38.884Z,59.15
2022-12-01T05:14:19.887Z,61.50
2022-12-01T05:17:00.165Z,56.72
2022-12-01T05:19:55.173Z,58.28
2022-12-01T05:23:05.268Z,59.90
2022-12-01T05:26:44.867Z,55.55
2022-12-01T05:29:40.370Z,54.17
2022-12-01T05:32:59.135Z,54.92
2022-12-01T05:35:39.260Z,59.58
2022-12-01T05:38:40.675Z,58.03
2022-12-01T05:41:49.626Z,56.15
2022-12-01T05:44:39.447Z,60.58
2022-12-01T05:47:55.015Z,59.70
2022-12-01T05:51:41.676Z,64.90
2022-12-01T05:54:45.803Z,62.30
2022-12-01T05:57:40.697Z,64.63
2022-12-01T06:04:01.801Z,61.45
2022-12-01T06:07:53.727Z,83.03
2022-12-01T06:10:37.531Z,64.47
2022-12-01T06:13:43.879Z,66.47
2022-12-01T06:16:53.696Z,64.40
2022-12-01T06:23:09.919Z,65.75
2022-12-01T06:25:57.543Z,62.72
2022-12-01T06:28:39.186Z,61.08
2022-12-01T06:31:27.703Z,61.08
2022-12-01T06:34:09.323Z,59.78
2022-12-01T06:36:37.499Z,55.75
2022-12-01T06:39:11.689Z,57.30
2022-12-01T06:41:40.258Z,56.05
2022-12-01T06:44:40.481Z,71.53
2022-12-01T06:47:08.342Z,55.33
2022-12-01T06:49:37.513Z,60.42
2022-12-01T06:52:07.183Z,58.58
2022-12-01T06:54:47.711Z,56.80
2022-12-01T06:57:30.085Z,57.33
2022-12-01T06:59:58.435Z,62.88
2022-12-01T07:06:01.468Z,61.67
2022-12-01T07:09:50.287Z,59.22
2022-12-01T07:16:55.958Z,53.45
2022-12-01T07:20:54.302Z,55.60
2022-12-01T07:23:53.512Z,53.10
2022-12-01T07:26:51.863Z,56.50
2022-12-01T07:34:01.374Z,54.63
2022-12-01T07:37:45.078Z,54.58
2022-12-01T07:40:12.767Z,59.47
2022-12-01T07:42:48.679Z,53.88
2022-12-01T07:46:00.243Z,59.40
2022-12-01T07:52:54.470Z,51.47
2022-12-01T07:56:08.423Z,56.28
2022-12-01T07:59:43.083Z,59.92
2022-12-01T08:03:01.182Z,51.85
2022-12-01T08:10:56.931Z,63.53
2022-12-01T08:18:57.227Z,53.53
2022-12-01T08:22:50.858Z,57.63
2022-12-01T08:25:52.360Z,56.22
2022-12-01T08:40:56.495Z,56.28
2022-12-01T08:51:33.097Z,50.90
2022-12-01T08:54:33.995Z,53.33
2022-12-01T08:57:35.858Z,54.42
2022-12-01T09:00:04.420Z,53.33
2022-12-01T09:02:45.708Z,55.90
2022-12-01T09:05:46.996Z,53.63
2022-12-01T09:08:41.851Z,48.45
2022-12-01T09:11:24.238Z,55.97
2022-12-01T09:14:41.958Z,50.90
2022-12-01T09:17:49.449Z,47.65
2022-12-01T09:24:47.295Z,48.97
2022-12-01T09:27:54.619Z,48.47
2022-12-01T09:31:56.857Z,47.65
2022-12-01T09:35:12.087Z,48.50
2022-12-01T09:37:52.530Z,48.92
2022-12-01T09:40:21.771Z,45.10
2022-12-01T09:42:49.403Z,49.83
2022-12-01T09:45:29.766Z,51.67
2022-12-01T09:47:59.897Z,46.67
2022-12-01T09:50:31.378Z,45.35
2022-12-01T09:53:09.268Z,52.30
2022-12-01T09:55:38.241Z,57.47
2022-12-01T09:58:15.523Z,55.15
2022-12-01T10:00:50.727Z,50.00
2022-12-01T10:11:02.846Z,56.38
2022-12-01T10:14:03.191Z,55.90
2022-12-01T10:16:56.188Z,54.83
2022-12-01T10:19:50.736Z,58.50
2022-12-01T10:25:41.383Z,53.50
2022-12-01T10:28:39.988Z,58.50
2022-12-01T10:31:57.893Z,54.67
2022-12-01T10:35:38.970Z,56.17
2022-12-01T10:38:45.254Z,52.72
2022-12-01T10:41:58.832Z,61.38
2022-12-01T10:44:53.358Z,54.50
2022-12-01T10:48:40.026Z,54.97
2022-12-01T10:51:59.329Z,55.42
2022-12-01T10:54:41.432Z,56.13
2022-12-01T10:57:18.085Z,55.67
2022-12-01T11:01:39.472Z,61.40
2022-12-01T11:04:57.730Z,58.20
2022-12-01T11:08:05.051Z,54.95
2022-12-01T11:10:34.843Z,57.47
2022-12-01T11:13:07.448Z,57.22
2022-12-01T11:15:40.385Z,57.20
2022-12-01T11:18:23.288Z,54.03
2022-12-01T11:21:28.655Z,59.75
2022-12-01T11:23:56.492Z,56.42
2022-12-01T11:26:45.173Z,59.53
2022-12-01T11:29:42.293Z,59.53
2022-12-01T11:32:48.719Z,57.88
2022-12-01T11:36:14.653Z,52.40
2022-12-01T11:39:43.359Z,58.42
2022-12-01T11:42:19.641Z,59.10
2022-12-01T11:45:39.586Z,60.15
2022-12-01T11:48:27.308Z,62.63
2022-12-01T11:51:32.624Z,63.08
2022-12-01T11:54:15.640Z,59.38
2022-12-01T11:56:45.043Z,55.40
2022-12-01T11:59:29.204Z,57.00
2022-12-01T12:05:40.863Z,55.60
2022-12-01T12:08:49.010Z,54.67
2022-12-01T12:12:17.879Z,52.95
2022-12-01T12:15:38.044Z,51.10
2022-12-01T12:18:21.869Z,52.22
2022-12-01T12:21:06.867Z,54.78
2022-12-01T12:24:04.743Z,55.95
2022-12-01T12:26:49.648Z,52.90
2022-12-01T12:29:55.334Z,50.88
2022-12-01T12:32:51.702Z,51.42
2022-12-01T12:35:40.399Z,51.45
2022-12-01T12:38:55.977Z,52.70
2022-12-01T12:41:42.004Z,50.95
2022-12-01T12:44:37.091Z,49.13
2022-12-01T12:47:55.693Z,55.13
2022-12-01T12:50:42.353Z,51.33
2022-12-01T12:53:24.323Z,51.95
2022-12-01T12:55:58.067Z,54.28
2022-12-01T12:58:39.884Z,49.72
2022-12-01T13:01:34.923Z,51.85
2022-12-01T13:04:44.758Z,54.20
2022-12-01T13:08:00.888Z,47.58
2022-12-01T13:10:43.358Z,53.33
2022-12-01T13:13:20.508Z,54.58
2022-12-01T13:15:51.451Z,51.67
2022-12-01T13:18:50.595Z,53.40
2022-12-01T13:21:20.885Z,52.40
2022-12-01T13:24:10.507Z,53.15
2022-12-01T13:26:44.254Z,51.83
2022-12-01T13:29:28.803Z,53.22
2022-12-01T13:32:49.823Z,50.78
2022-12-01T13:35:44.124Z,53.33
2022-12-01T13:38:41.772Z,57.22
2022-12-01T13:41:50.794Z,51.72
2022-12-01T13:44:38.726Z,52.80
2022-12-01T13:47:26.511Z,51.42
2022-12-01T13:50:55.742Z,54.65
2022-12-01T13:54:41.633Z,51.35
2022-12-01T13:57:28.601Z,54.03
2022-12-01T13:59:59.009Z,47.77
2022-12-01T14:02:48.914Z,53.47
2022-12-01T14:05:55.792Z,51.83
2022-12-01T14:08:46.211Z,49.60
2022-12-01T14:11:37.353Z,47.85
2022-12-01T14:14:39.831Z,48.43
2022-12-01T14:17:36.456Z,52.28
2022-12-01T14:20:25.595Z,47.35
2022-12-01T14:23:20.137Z,53.55
2022-12-01T14:26:12.272Z,51.03
2022-12-01T14:29:01.702Z,51.90
2022-12-01T14:31:35.249Z,56.55
2022-12-01T14:34:18.911Z,53.00
2022-12-01T14:37:15.785Z,57.25
2022-12-01T14:40:23.418Z,57.25
2022-12-01T14:43:23.791Z,60.47
2022-12-01T14:46:20.787Z,59.38
2022-12-01T14:49:36.838Z,57.25
2022-12-01T14:52:41.826Z,54.17
2022-12-01T14:55:56.906Z,53.78
2022-12-01T14:58:38.336Z,54.72
2022-12-01T15:01:28.404Z,67.28
2022-12-01T15:04:29.092Z,65.72
2022-12-01T15:07:36.520Z,63.30
2022-12-01T15:10:21.561Z,64.88
2022-12-01T15:12:50.319Z,63.22
2022-12-01T15:15:40.073Z,63.97
2022-12-01T15:18:44.800Z,65.65
2022-12-01T15:24:41.127Z,57.30
2022-12-01T15:27:33.707Z,59.72
2022-12-01T15:30:04.933Z,62.33
2022-12-01T15:32:38.005Z,64.80
2022-12-01T15:35:08.026Z,61.28
2022-12-01T15:37:44.609Z,63.83
2022-12-01T15:41:00.123Z,64.82
2022-12-01T15:43:34.220Z,63.67
2022-12-01T15:46:17.712Z,61.65
2022-12-01T15:49:20.793Z,63.90
2022-12-01T15:52:10.861Z,70.28
2022-12-01T15:54:40.053Z,73.32
2022-12-01T15:57:35.769Z,75.85
2022-12-01T16:00:25.887Z,70.20
2022-12-01T16:03:13.870Z,75.32
2022-12-01T16:06:15.042Z,77.50
2022-12-01T16:09:04.916Z,71.18
2022-12-01T16:11:33.799Z,75.72
2022-12-01T16:14:21.492Z,75.90
2022-12-01T16:16:50.536Z,73.57
2022-12-01T16:19:18.147Z,70.28
2022-12-01T16:22:44.750Z,73.32
2022-12-01T16:25:46.781Z,66.15
2022-12-01T16:28:47.799Z,65.95
2022-12-01T16:34:53.599Z,68.00
2022-12-01T16:37:23.684Z,75.50
2022-12-01T16:39:51.157Z,68.88
2022-12-01T16:42:50.966Z,68.15
2022-12-01T16:45:53.045Z,76.97
2022-12-01T16:48:46.095Z,74.13
2022-12-01T16:51:55.370Z,64.22
2022-12-01T16:54:51.026Z,70.55
2022-12-01T16:57:41.919Z,68.97
2022-12-01T17:00:45.957Z,70.75
2022-12-01T17:03:54.890Z,71.10
2022-12-01T17:06:57.899Z,69.72
2022-12-01T17:10:38.340Z,64.38
2022-12-01T17:13:05.693Z,68.10
2022-12-01T17:15:33.470Z,74.15
2022-12-01T17:18:00.859Z,74.18
2022-12-01T17:20:29.398Z,70.75
2022-12-01T17:23:17.374Z,71.30
2022-12-01T17:26:00.944Z,74.75
2022-12-01T17:28:28.731Z,73.32
2022-12-01T17:31:00.730Z,69.75
2022-12-01T17:33:27.947Z,72.57
2022-12-01T17:35:55.118Z,73.95
2022-12-01T17:38:23.326Z,70.78
2022-12-01T17:41:05.377Z,78.15
2022-12-01T17:43:34.274Z,71.80
2022-12-01T17:46:23.775Z,75.63
2022-12-01T17:49:25.662Z,68.72
2022-12-01T17:52:08.131Z,71.65
2022-12-01T17:54:36.373Z,76.97
2022-12-01T17:57:03.769Z,80.07
2022-12-01T17:59:31.350Z,78.22
2022-12-01T18:02:02.220Z,74.45
2022-12-01T18:04:53.357Z,75.80
2022-12-01T18:07:39.529Z,72.60
2022-12-01T18:10:42.665Z,72.57
2022-12-01T18:13:47.252Z,72.85
2022-12-01T18:16:42.279Z,72.18
2022-12-01T18:19:48.975Z,65.53
2022-12-01T18:22:38.982Z,69.47
2022-12-01T18:25:06.727Z,70.75
2022-12-01T18:27:44.138Z,69.40
2022-12-01T18:30:43.078Z,69.85
2022-12-01T18:33:25.289Z,76.18
2022-12-01T18:36:09.441Z,78.93
2022-12-01T18:39:01.062Z,69.97
2022-12-01T18:41:52.236Z,68.78
2022-12-01T18:44:36.175Z,70.88
2022-12-01T18:47:30.944Z,71.85
2022-12-01T18:49:59.840Z,71.93
2022-12-01T18:52:45.010Z,74.43
2022-12-01T18:55:41.651Z,74.45
2022-12-01T18:58:41.392Z,82.00
2022-12-01T19:01:40.416Z,81.78
2022-12-01T19:04:40.955Z,75.43
2022-12-01T19:07:29.338Z,75.45
2022-12-01T19:10:18.328Z,84.03
2022-12-01T19:12:58.819Z,85.97
2022-12-01T19:15:46.159Z,84.40
2022-12-01T19:18:27.931Z,87.05
2022-12-01T19:20:55.118Z,96.05
2022-12-01T19:23:27.573Z,94.28
2022-12-01T19:26:31.888Z,93.90
2022-12-01T19:31:40.044Z,89.70
2022-12-01T19:34:08.902Z,105.13
2022-12-01T19:36:57.067Z,94.88
2022-12-01T19:39:58.053Z,94.22
2022-12-01T19:42:54.830Z,100.00
2022-12-01T19:45:23.023Z,92.57
2022-12-01T19:48:11.833Z,89.72
2022-12-01T19:50:56.775Z,95.75
2022-12-01T19:53:30.443Z,93.43
2022-12-01T19:56:02.549Z,93.82
2022-12-01T19:58:32.336Z,85.55
2022-12-01T20:01:09.106Z,88.88
2022-12-01T20:03:59.929Z,94.13
2022-12-01T20:06:54.310Z,87.57
2022-12-01T20:09:35.183Z,89.50
2022-12-01T20:12:41.860Z,84.30
2022-12-01T20:15:39.378Z,88.07
2022-12-01T20:18:06.385Z,92.55
2022-12-01T20:20:33.646Z,93.45
2022-12-01T20:23:00.640Z,88.45
2022-12-01T20:25:27.833Z,93.97
2022-12-01T20:27:54.868Z,92.65
2022-12-01T20:30:41.957Z,90.57
2022-12-01T20:33:42.980Z,89.30
2022-12-01T20:36:25.068Z,83.95
2022-12-01T20:39:12.010Z,81.47
2022-12-01T20:42:13.413Z,86.07
2022-12-01T20:44:53.913Z,80.55
2022-12-01T20:47:22.192Z,81.65
2022-12-01T20:49:52.010Z,80.85
2022-12-01T20:52:42.175Z,83.50
2022-12-01T20:55:12.809Z,75.88
2022-12-01T20:57:43.268Z,74.28
2022-12-01T21:00:28.665Z,70.05
2022-12-01T21:03:48.081Z,80.72
2022-12-01T21:06:51.187Z,74.53
2022-12-01T21:09:45.177Z,75.30
2022-12-01T21:12:57.991Z,78.13
2022-12-01T21:16:14.058Z,79.47
2022-12-01T21:18:43.999Z,70.45
2022-12-01T21:21:43.039Z,74.70
2022-12-01T21:24:33.512Z,74.15
2022-12-01T21:27:16.871Z,74.15
2022-12-01T21:30:04.057Z,69.97
2022-12-01T21:32:46.451Z,62.17
2022-12-01T21:35:31.909Z,68.45
2022-12-01T21:38:37.226Z,69.28
2022-12-01T21:41:36.268Z,67.22
2022-12-01T21:44:20.319Z,75.47
2022-12-01T21:46:57.384Z,71.70
2022-12-01T21:49:40.187Z,79.15
2022-12-01T21:52:48.783Z,80.13
2022-12-01T21:55:53.292Z,73.38
2022-12-01T21:58:52.524Z,68.43
2022-12-01T22:01:37.670Z,63.00
2022-12-01T22:04:50.423Z,65.38
2022-12-01T22:07:39.220Z,62.75
2022-12-01T22:10:47.936Z,67.55
2022-12-01T22:13:32.115Z,66.22
2022-12-01T22:16:41.637Z,63.05
2022-12-01T22:19:28.524Z,65.90
2022-12-01T22:22:37.178Z,72.80
2022-12-01T22:25:33.141Z,67.18
2022-12-01T22:28:02.806Z,66.63
2022-12-01T22:34:12.813Z,57.83
2022-12-01T22:36:59.394Z,67.35
2022-12-01T22:39:53.109Z,67.28
2022-12-01T22:42:59.054Z,64.55
2022-12-01T22:45:39.733Z,63.47
2022-12-01T22:48:33.515Z,65.32
2022-12-01T22:51:12.733Z,65.85
2022-12-01T22:53:41.530Z,62.42
2022-12-01T22:56:24.141Z,62.92
2022-12-01T22:58:51.673Z,60.45
2022-12-01T23:01:26.682Z,62.97
2022-12-01T23:04:26.226Z,59.53
2022-12-01T23:07:41.583Z,55.60
2022-12-01T23:10:31.541Z,65.82
2022-12-01T23:13:36.061Z,55.17
2022-12-01T23:16:16.693Z,62.45
2022-12-01T23:19:04.048Z,59.13
2022-12-01T23:22:06.203Z,54.35
2022-12-01T23:24:47.001Z,54.55
2022-12-01T23:27:18.049Z,54.17
2022-12-01T23:30:05.351Z,57.17
2022-12-01T23:32:48.012Z,57.67
2022-12-01T23:35:18.314Z,55.80
2022-12-01T23:38:07.098Z,60.22
2022-12-01T23:41:11.063Z,51.92
2022-12-01T23:43:51.833Z,51.60
2022-12-01T23:46:23.093Z,56.40
2022-12-01T23:48:58.455Z,54.85
2022-12-01T23:51:31.966Z,53.50
2022-12-01T23:54:02.036Z,53.90
2022-12-01T23:56:52.058Z,53.65
2022-12-01T23:59:32.871Z,53.15
